sensor_id;sensor_type;location;lat;lon;timestamp;pressure;altitude;pressure_sealevel;temperature
18161;BMP280;9205;52.032;4.314;2023-07-02T00:01:05;100686.56;;;19.57
18161;BMP280;9205;52.032;4.314;2023-07-02T00:03:32;100681.88;;;19.50
18161;BMP280;9205;52.032;4.314;2023-07-02T00:06:08;100689.13;;;19.43
18161;BMP280;9205;52.032;4.314;2023-07-02T00:08:35;100693.53;;;19.41
18161;BMP280;9205;52.032;4.314;2023-07-02T00:11:05;100697.13;;;19.39
18161;BMP280;9205;52.032;4.314;2023-07-02T00:13:40;100694.28;;;19.43
18161;BMP280;9205;52.032;4.314;2023-07-02T00:16:07;100692.72;;;19.41
18161;BMP280;9205;52.032;4.314;2023-07-02T00:18:36;100696.59;;;19.34
18161;BMP280;9205;52.032;4.314;2023-07-02T00:21:06;100698.56;;;19.29
18161;BMP280;9205;52.032;4.314;2023-07-02T00:23:39;100688.84;;;19.34
18161;BMP280;9205;52.032;4.314;2023-07-02T00:26:09;100696.84;;;19.29
18161;BMP280;9205;52.032;4.314;2023-07-02T00:28:38;100694.34;;;19.28
18161;BMP280;9205;52.032;4.314;2023-07-02T00:31:06;100706.31;;;19.29
18161;BMP280;9205;52.032;4.314;2023-07-02T00:33:35;100697.75;;;19.28
18161;BMP280;9205;52.032;4.314;2023-07-02T00:36:03;100706.31;;;19.29
18161;BMP280;9205;52.032;4.314;2023-07-02T00:38:33;100703.94;;;19.26
18161;BMP280;9205;52.032;4.314;2023-07-02T00:41:01;100712.66;;;19.23
18161;BMP280;9205;52.032;4.314;2023-07-02T00:43:29;100712.28;;;19.15
18161;BMP280;9205;52.032;4.314;2023-07-02T00:45:56;100714.34;;;19.09
18161;BMP280;9205;52.032;4.314;2023-07-02T00:48:25;100710.53;;;19.00
18161;BMP280;9205;52.032;4.314;2023-07-02T00:50:53;100713.78;;;19.04
18161;BMP280;9205;52.032;4.314;2023-07-02T00:53:21;100704.47;;;19.01
18161;BMP280;9205;52.032;4.314;2023-07-02T00:55:50;100699.53;;;18.98
18161;BMP280;9205;52.032;4.314;2023-07-02T00:58:18;100695.81;;;18.88
18161;BMP280;9205;52.032;4.314;2023-07-02T01:00:53;100702.53;;;18.91
18161;BMP280;9205;52.032;4.314;2023-07-02T01:03:23;100705.44;;;18.85
18161;BMP280;9205;52.032;4.314;2023-07-02T01:05:52;100705.44;;;18.85
18161;BMP280;9205;52.032;4.314;2023-07-02T01:08:20;100714.75;;;18.87
18161;BMP280;9205;52.032;4.314;2023-07-02T01:10:50;100713.53;;;18.79
18161;BMP280;9205;52.032;4.314;2023-07-02T01:13:21;100714.53;;;18.77
18161;BMP280;9205;52.032;4.314;2023-07-02T01:15:52;100710.97;;;18.79
18161;BMP280;9205;52.032;4.314;2023-07-02T01:18:20;100706.97;;;18.74
18161;BMP280;9205;52.032;4.314;2023-07-02T01:20:51;100709.19;;;18.80
18161;BMP280;9205;52.032;4.314;2023-07-02T01:23:24;100710.72;;;18.68
18161;BMP280;9205;52.032;4.314;2023-07-02T01:25:53;100703.19;;;18.65
18161;BMP280;9205;52.032;4.314;2023-07-02T01:28:22;100704.41;;;18.58
18161;BMP280;9205;52.032;4.314;2023-07-02T01:30:51;100706.84;;;18.61
18161;BMP280;9205;52.032;4.314;2023-07-02T01:33:18;100701.53;;;18.64
18161;BMP280;9205;52.032;4.314;2023-07-02T01:35:49;100706.69;;;18.64
18161;BMP280;9205;52.032;4.314;2023-07-02T01:38:17;100704.25;;;18.61
18161;BMP280;9205;52.032;4.314;2023-07-02T01:40:45;100702.84;;;18.56
18161;BMP280;9205;52.032;4.314;2023-07-02T01:43:15;100702.78;;;18.57
18161;BMP280;9205;52.032;4.314;2023-07-02T01:45:43;100700.63;;;18.65
18161;BMP280;9205;52.032;4.314;2023-07-02T01:48:11;100698.56;;;18.56
18161;BMP280;9205;52.032;4.314;2023-07-02T01:50:39;100694.91;;;18.45
18161;BMP280;9205;52.032;4.314;2023-07-02T01:53:08;100687.47;;;18.40
18161;BMP280;9205;52.032;4.314;2023-07-02T01:55:36;100694.50;;;18.37
18161;BMP280;9205;52.032;4.314;2023-07-02T01:58:04;100711.66;;;18.36
18161;BMP280;9205;52.032;4.314;2023-07-02T02:00:31;100704.97;;;18.34
18161;BMP280;9205;52.032;4.314;2023-07-02T02:02:59;100711.84;;;18.33
18161;BMP280;9205;52.032;4.314;2023-07-02T02:05:28;100715.34;;;18.32
18161;BMP280;9205;52.032;4.314;2023-07-02T02:07:55;100715.16;;;18.35
18161;BMP280;9205;52.032;4.314;2023-07-02T02:10:25;100715.50;;;18.29
18161;BMP280;9205;52.032;4.314;2023-07-02T02:12:53;100715.75;;;18.25
18161;BMP280;9205;52.032;4.314;2023-07-02T02:15:20;100718.56;;;18.20
18161;BMP280;9205;52.032;4.314;2023-07-02T02:17:47;100727.59;;;18.27
18161;BMP280;9205;52.032;4.314;2023-07-02T02:20:15;100713.09;;;18.26
18161;BMP280;9205;52.032;4.314;2023-07-02T02:22:44;100720.38;;;18.18
18161;BMP280;9205;52.032;4.314;2023-07-02T02:25:17;100730.25;;;18.10
18161;BMP280;9205;52.032;4.314;2023-07-02T02:27:46;100734.03;;;18.04
18161;BMP280;9205;52.032;4.314;2023-07-02T02:30:14;100733.78;;;18.08
18161;BMP280;9205;52.032;4.314;2023-07-02T02:32:43;100736.94;;;18.13
18161;BMP280;9205;52.032;4.314;2023-07-02T02:35:11;100749.03;;;18.11
18161;BMP280;9205;52.032;4.314;2023-07-02T02:37:39;100749.91;;;18.11
18161;BMP280;9205;52.032;4.314;2023-07-02T02:40:08;100744.91;;;18.08
18161;BMP280;9205;52.032;4.314;2023-07-02T02:42:40;100744.81;;;18.10
18161;BMP280;9205;52.032;4.314;2023-07-02T02:45:14;100749.19;;;18.08
18161;BMP280;9205;52.032;4.314;2023-07-02T02:47:42;100748.28;;;17.94
18161;BMP280;9205;52.032;4.314;2023-07-02T02:50:13;100748.28;;;17.94
18161;BMP280;9205;52.032;4.314;2023-07-02T02:52:45;100741.13;;;17.83
18161;BMP280;9205;52.032;4.314;2023-07-02T02:55:13;100738.06;;;17.77
18161;BMP280;9205;52.032;4.314;2023-07-02T02:57:45;100738.47;;;17.85
18161;BMP280;9205;52.032;4.314;2023-07-02T03:00:29;100738.63;;;17.82
18161;BMP280;9205;52.032;4.314;2023-07-02T03:02:57;100746.44;;;17.80
18161;BMP280;9205;52.032;4.314;2023-07-02T03:05:28;100745.00;;;17.75
18161;BMP280;9205;52.032;4.314;2023-07-02T03:07:56;100737.97;;;17.78
18161;BMP280;9205;52.032;4.314;2023-07-02T03:10:24;100736.72;;;17.85
18161;BMP280;9205;52.032;4.314;2023-07-02T03:13:06;100734.97;;;17.70
18161;BMP280;9205;52.032;4.314;2023-07-02T03:15:35;100744.75;;;17.64
18161;BMP280;9205;52.032;4.314;2023-07-02T03:18:02;100733.63;;;17.63
18161;BMP280;9205;52.032;4.314;2023-07-02T03:20:30;100736.28;;;17.62
18161;BMP280;9205;52.032;4.314;2023-07-02T03:22:58;100740.28;;;17.67
18161;BMP280;9205;52.032;4.314;2023-07-02T03:25:28;100753.84;;;17.69
18161;BMP280;9205;52.032;4.314;2023-07-02T03:27:55;100756.00;;;17.61
18161;BMP280;9205;52.032;4.314;2023-07-02T03:30:23;100746.41;;;17.65
18161;BMP280;9205;52.032;4.314;2023-07-02T03:32:52;100766.34;;;17.60
18161;BMP280;9205;52.032;4.314;2023-07-02T03:35:21;100747.44;;;17.61
18161;BMP280;9205;52.032;4.314;2023-07-02T03:37:49;100745.03;;;17.58
18161;BMP280;9205;52.032;4.314;2023-07-02T03:40:17;100763.31;;;17.52
18161;BMP280;9205;52.032;4.314;2023-07-02T03:42:48;100765.13;;;17.50
18161;BMP280;9205;52.032;4.314;2023-07-02T03:45:16;100769.13;;;17.55
18161;BMP280;9205;52.032;4.314;2023-07-02T03:47:45;100760.16;;;17.47
18161;BMP280;9205;52.032;4.314;2023-07-02T03:50:14;100759.59;;;17.42
18161;BMP280;9205;52.032;4.314;2023-07-02T03:52:43;100771.66;;;17.40
18161;BMP280;9205;52.032;4.314;2023-07-02T03:55:12;100761.84;;;17.31
18161;BMP280;9205;52.032;4.314;2023-07-02T03:57:41;100766.00;;;17.33
18161;BMP280;9205;52.032;4.314;2023-07-02T04:00:12;100766.97;;;17.31
18161;BMP280;9205;52.032;4.314;2023-07-02T04:02:43;100773.09;;;17.28
18161;BMP280;9205;52.032;4.314;2023-07-02T04:05:12;100769.56;;;17.31
18161;BMP280;9205;52.032;4.314;2023-07-02T04:07:41;100778.00;;;17.33
18161;BMP280;9205;52.032;4.314;2023-07-02T04:10:11;100783.88;;;17.35
18161;BMP280;9205;52.032;4.314;2023-07-02T04:12:40;100780.56;;;17.33
18161;BMP280;9205;52.032;4.314;2023-07-02T04:15:10;100779.28;;;17.41
18161;BMP280;9205;52.032;4.314;2023-07-02T04:17:37;100784.94;;;17.48
18161;BMP280;9205;52.032;4.314;2023-07-02T04:20:07;100785.63;;;17.51
18161;BMP280;9205;52.032;4.314;2023-07-02T04:22:36;100786.16;;;17.41
18161;BMP280;9205;52.032;4.314;2023-07-02T04:25:07;100785.31;;;17.40
18161;BMP280;9205;52.032;4.314;2023-07-02T04:27:38;100796.34;;;17.42
18161;BMP280;9205;52.032;4.314;2023-07-02T04:30:07;100791.88;;;17.46
18161;BMP280;9205;52.032;4.314;2023-07-02T04:32:36;100802.47;;;17.40
18161;BMP280;9205;52.032;4.314;2023-07-02T04:35:07;100805.03;;;17.40
18161;BMP280;9205;52.032;4.314;2023-07-02T04:37:39;100806.25;;;17.33
18161;BMP280;9205;52.032;4.314;2023-07-02T04:40:10;100809.94;;;17.44
18161;BMP280;9205;52.032;4.314;2023-07-02T04:42:39;100809.19;;;17.42
18161;BMP280;9205;52.032;4.314;2023-07-02T04:45:09;100812.88;;;17.37
18161;BMP280;9205;52.032;4.314;2023-07-02T04:47:39;100811.09;;;17.39
18161;BMP280;9205;52.032;4.314;2023-07-02T04:50:09;100813.56;;;17.40
18161;BMP280;9205;52.032;4.314;2023-07-02T04:52:38;100814.25;;;17.44
18161;BMP280;9205;52.032;4.314;2023-07-02T04:55:10;100812.75;;;17.40
18161;BMP280;9205;52.032;4.314;2023-07-02T04:57:38;100817.25;;;17.35
18161;BMP280;9205;52.032;4.314;2023-07-02T05:00:13;100822.47;;;17.33
18161;BMP280;9205;52.032;4.314;2023-07-02T05:02:41;100820.38;;;17.41
18161;BMP280;9205;52.032;4.314;2023-07-02T05:05:17;100818.66;;;17.42
18161;BMP280;9205;52.032;4.314;2023-07-02T05:07:45;100824.50;;;17.44
18161;BMP280;9205;52.032;4.314;2023-07-02T05:10:14;100818.66;;;17.42
18161;BMP280;9205;52.032;4.314;2023-07-02T05:12:41;100821.81;;;17.47
18161;BMP280;9205;52.032;4.314;2023-07-02T05:15:10;100829.34;;;17.50
18161;BMP280;9205;52.032;4.314;2023-07-02T05:17:48;100825.41;;;17.43
18161;BMP280;9205;52.032;4.314;2023-07-02T05:20:18;100830.63;;;17.41
18161;BMP280;9205;52.032;4.314;2023-07-02T05:22:48;100832.16;;;17.45
18161;BMP280;9205;52.032;4.314;2023-07-02T05:25:20;100835.47;;;17.47
18161;BMP280;9205;52.032;4.314;2023-07-02T05:27:48;100836.44;;;17.45
18161;BMP280;9205;52.032;4.314;2023-07-02T05:30:18;100844.91;;;17.47
18161;BMP280;9205;52.032;4.314;2023-07-02T05:32:46;100847.94;;;17.55
18161;BMP280;9205;52.032;4.314;2023-07-02T05:35:22;100840.47;;;17.50
18161;BMP280;9205;52.032;4.314;2023-07-02T05:37:51;100843.34;;;17.44
18161;BMP280;9205;52.032;4.314;2023-07-02T05:40:22;100854.50;;;17.43
18161;BMP280;9205;52.032;4.314;2023-07-02T05:42:50;100847.41;;;17.48
18161;BMP280;9205;52.032;4.314;2023-07-02T05:45:19;100847.41;;;17.48
18161;BMP280;9205;52.032;4.314;2023-07-02T05:47:47;100854.66;;;17.40
18161;BMP280;9205;52.032;4.314;2023-07-02T05:50:15;100858.78;;;17.43
18161;BMP280;9205;52.032;4.314;2023-07-02T05:52:44;100860.69;;;17.39
18161;BMP280;9205;52.032;4.314;2023-07-02T05:55:13;100864.25;;;17.37
18161;BMP280;9205;52.032;4.314;2023-07-02T05:57:43;100869.25;;;17.40
18161;BMP280;9205;52.032;4.314;2023-07-02T06:00:14;100862.28;;;17.42
18161;BMP280;9205;52.032;4.314;2023-07-02T06:02:46;100861.44;;;17.41
18161;BMP280;9205;52.032;4.314;2023-07-02T06:05:14;100873.38;;;17.42
18161;BMP280;9205;52.032;4.314;2023-07-02T06:07:42;100883.66;;;17.42
18161;BMP280;9205;52.032;4.314;2023-07-02T06:10:11;100879.63;;;17.37
18161;BMP280;9205;52.032;4.314;2023-07-02T06:12:39;100885.47;;;17.40
18161;BMP280;9205;52.032;4.314;2023-07-02T06:15:10;100882.38;;;17.51
18161;BMP280;9205;52.032;4.314;2023-07-02T06:17:38;100892.38;;;17.57
18161;BMP280;9205;52.032;4.314;2023-07-02T06:20:07;100880.94;;;17.62
18161;BMP280;9205;52.032;4.314;2023-07-02T06:22:36;100889.41;;;17.64
18161;BMP280;9205;52.032;4.314;2023-07-02T06:25:08;100879.13;;;17.64
18161;BMP280;9205;52.032;4.314;2023-07-02T06:27:36;100891.22;;;17.62
18161;BMP280;9205;52.032;4.314;2023-07-02T06:30:08;100896.88;;;17.69
18161;BMP280;9205;52.032;4.314;2023-07-02T06:32:37;100899.69;;;17.64
18161;BMP280;9205;52.032;4.314;2023-07-02T06:35:06;100899.38;;;17.70
18161;BMP280;9205;52.032;4.314;2023-07-02T06:37:36;100907.03;;;17.72
18161;BMP280;9205;52.032;4.314;2023-07-02T06:40:05;100908.59;;;17.74
18161;BMP280;9205;52.032;4.314;2023-07-02T06:42:34;100911.63;;;17.82
18161;BMP280;9205;52.032;4.314;2023-07-02T06:45:03;100902.25;;;17.81
18161;BMP280;9205;52.032;4.314;2023-07-02T06:47:31;100906.19;;;17.88
18161;BMP280;9205;52.032;4.314;2023-07-02T06:50:00;100905.59;;;17.83
18161;BMP280;9205;52.032;4.314;2023-07-02T06:52:30;100917.22;;;17.90
18161;BMP280;9205;52.032;4.314;2023-07-02T06:54:57;100908.59;;;17.91
18161;BMP280;9205;52.032;4.314;2023-07-02T06:57:25;100922.72;;;17.83
18161;BMP280;9205;52.032;4.314;2023-07-02T06:59:57;100913.13;;;17.86
18161;BMP280;9205;52.032;4.314;2023-07-02T07:02:25;100914.13;;;17.84
18161;BMP280;9205;52.032;4.314;2023-07-02T07:04:52;100929.31;;;17.88
18161;BMP280;9205;52.032;4.314;2023-07-02T07:07:22;100931.19;;;17.85
18161;BMP280;9205;52.032;4.314;2023-07-02T07:09:50;100942.59;;;17.96
18161;BMP280;9205;52.032;4.314;2023-07-02T07:12:19;100947.75;;;17.96
18161;BMP280;9205;52.032;4.314;2023-07-02T07:14:47;100952.06;;;17.96
18161;BMP280;9205;52.032;4.314;2023-07-02T07:17:16;100946.09;;;17.95
18161;BMP280;9205;52.032;4.314;2023-07-02T07:19:44;100950.09;;;18.01
18161;BMP280;9205;52.032;4.314;2023-07-02T07:22:12;100944.63;;;18.06
18161;BMP280;9205;52.032;4.314;2023-07-02T07:24:42;100951.13;;;18.13
18161;BMP280;9205;52.032;4.314;2023-07-02T07:27:09;100947.00;;;18.28
18161;BMP280;9205;52.032;4.314;2023-07-02T07:29:39;100946.09;;;18.29
18161;BMP280;9205;52.032;4.314;2023-07-02T07:32:08;100952.66;;;18.17
18161;BMP280;9205;52.032;4.314;2023-07-02T07:34:41;100957.94;;;18.14
18161;BMP280;9205;52.032;4.314;2023-07-02T07:37:09;100961.91;;;18.21
18161;BMP280;9205;52.032;4.314;2023-07-02T07:39:36;100964.00;;;18.30
18161;BMP280;9205;52.032;4.314;2023-07-02T07:42:07;100973.84;;;18.22
18161;BMP280;9205;52.032;4.314;2023-07-02T07:44:35;100965.00;;;18.28
18161;BMP280;9205;52.032;4.314;2023-07-02T07:47:04;100965.81;;;18.28
18161;BMP280;9205;52.032;4.314;2023-07-02T07:49:31;100959.00;;;18.27
18161;BMP280;9205;52.032;4.314;2023-07-02T07:51:59;100967.09;;;18.37
18161;BMP280;9205;52.032;4.314;2023-07-02T07:54:28;100975.31;;;18.43
18161;BMP280;9205;52.032;4.314;2023-07-02T07:56:55;100972.59;;;18.46
18161;BMP280;9205;52.032;4.314;2023-07-02T07:59:24;100981.31;;;18.44
18161;BMP280;9205;52.032;4.314;2023-07-02T08:01:52;100976.00;;;18.47
18161;BMP280;9205;52.032;4.314;2023-07-02T08:04:19;100976.66;;;18.50
18161;BMP280;9205;52.032;4.314;2023-07-02T08:06:47;100972.53;;;18.48
18161;BMP280;9205;52.032;4.314;2023-07-02T08:09:16;100971.59;;;18.49
18161;BMP280;9205;52.032;4.314;2023-07-02T08:11:43;100982.13;;;18.44
18161;BMP280;9205;52.032;4.314;2023-07-02T08:14:12;100983.88;;;18.44
18161;BMP280;9205;52.032;4.314;2023-07-02T08:19:34;100989.53;;;18.50
18161;BMP280;9205;52.032;4.314;2023-07-02T08:22:03;100989.97;;;18.58
18161;BMP280;9205;52.032;4.314;2023-07-02T08:24:31;100977.63;;;18.65
18161;BMP280;9205;52.032;4.314;2023-07-02T08:26:59;100994.63;;;18.67
18161;BMP280;9205;52.032;4.314;2023-07-02T08:29:28;100996.31;;;18.68
18161;BMP280;9205;52.032;4.314;2023-07-02T08:31:57;100996.66;;;18.78
18161;BMP280;9205;52.032;4.314;2023-07-02T08:34:24;101004.13;;;18.82
18161;BMP280;9205;52.032;4.314;2023-07-02T08:36:53;100994.59;;;18.84
18161;BMP280;9205;52.032;4.314;2023-07-02T08:39:22;101010.28;;;18.80
18161;BMP280;9205;52.032;4.314;2023-07-02T08:41:50;101000.47;;;18.71
18161;BMP280;9205;52.032;4.314;2023-07-02T08:44:21;100999.78;;;18.67
18161;BMP280;9205;52.032;4.314;2023-07-02T08:46:49;101004.78;;;18.70
18161;BMP280;9205;52.032;4.314;2023-07-02T08:49:19;100998.13;;;18.66
18161;BMP280;9205;52.032;4.314;2023-07-02T08:51:47;101004.66;;;18.73
18161;BMP280;9205;52.032;4.314;2023-07-02T08:54:18;101002.75;;;18.77
18161;BMP280;9205;52.032;4.314;2023-07-02T08:56:46;100999.00;;;18.82
18161;BMP280;9205;52.032;4.314;2023-07-02T08:59:14;101008.56;;;18.80
18161;BMP280;9205;52.032;4.314;2023-07-02T09:01:49;101014.38;;;18.84
18161;BMP280;9205;52.032;4.314;2023-07-02T09:04:18;101018.84;;;18.80
18161;BMP280;9205;52.032;4.314;2023-07-02T09:06:47;101018.75;;;18.82
18161;BMP280;9205;52.032;4.314;2023-07-02T09:09:19;101017.44;;;18.90
18161;BMP280;9205;52.032;4.314;2023-07-02T09:11:50;101009.41;;;18.96
18161;BMP280;9205;52.032;4.314;2023-07-02T09:14:25;101028.09;;;18.99
18161;BMP280;9205;52.032;4.314;2023-07-02T09:17:03;101021.19;;;19.00
18161;BMP280;9205;52.032;4.314;2023-07-02T09:19:35;101021.09;;;19.01
18161;BMP280;9205;52.032;4.314;2023-07-02T09:22:04;101018.00;;;19.12
18161;BMP280;9205;52.032;4.314;2023-07-02T09:24:32;101018.59;;;19.17
18161;BMP280;9205;52.032;4.314;2023-07-02T09:27:01;101014.34;;;19.16
18161;BMP280;9205;52.032;4.314;2023-07-02T09:29:31;101017.59;;;19.19
18161;BMP280;9205;52.032;4.314;2023-07-02T09:32:03;101017.25;;;19.25
18161;BMP280;9205;52.032;4.314;2023-07-02T09:34:32;101019.16;;;19.22
18161;BMP280;9205;52.032;4.314;2023-07-02T09:37:02;101012.06;;;19.27
18161;BMP280;9205;52.032;4.314;2023-07-02T09:39:34;101015.44;;;19.27
18161;BMP280;9205;52.032;4.314;2023-07-02T09:42:06;101018.69;;;19.31
18161;BMP280;9205;52.032;4.314;2023-07-02T09:44:35;101017.00;;;19.30
18161;BMP280;9205;52.032;4.314;2023-07-02T09:47:04;101021.81;;;19.36
18161;BMP280;9205;52.032;4.314;2023-07-02T09:49:35;101011.78;;;19.31
18161;BMP280;9205;52.032;4.314;2023-07-02T09:52:05;101018.53;;;19.34
18161;BMP280;9205;52.032;4.314;2023-07-02T09:54:35;101023.59;;;19.35
18161;BMP280;9205;52.032;4.314;2023-07-02T09:57:05;101028.06;;;19.32
18161;BMP280;9205;52.032;4.314;2023-07-02T09:59:33;101025.72;;;19.43
18161;BMP280;9205;52.032;4.314;2023-07-02T10:02:05;101019.50;;;19.47
18161;BMP280;9205;52.032;4.314;2023-07-02T10:04:41;101034.81;;;19.50
18161;BMP280;9205;52.032;4.314;2023-07-02T10:07:09;101037.81;;;19.58
18161;BMP280;9205;52.032;4.314;2023-07-02T10:09:39;101033.97;;;19.65
18161;BMP280;9205;52.032;4.314;2023-07-02T10:12:19;101032.88;;;19.68
18161;BMP280;9205;52.032;4.314;2023-07-02T10:14:49;101034.13;;;19.77
18161;BMP280;9205;52.032;4.314;2023-07-02T10:17:25;101038.44;;;19.76
18161;BMP280;9205;52.032;4.314;2023-07-02T10:19:57;101028.69;;;19.81
18161;BMP280;9205;52.032;4.314;2023-07-02T10:22:26;101042.97;;;19.87
18161;BMP280;9205;52.032;4.314;2023-07-02T10:24:57;101033.59;;;20.01
18161;BMP280;9205;52.032;4.314;2023-07-02T10:27:37;101034.56;;;20.14
18161;BMP280;9205;52.032;4.314;2023-07-02T10:30:08;101031.22;;;20.12
18161;BMP280;9205;52.032;4.314;2023-07-02T10:32:40;101042.66;;;20.08
18161;BMP280;9205;52.032;4.314;2023-07-02T10:35:14;101041.22;;;20.18
18161;BMP280;9205;52.032;4.314;2023-07-02T10:37:42;101031.34;;;20.25
18161;BMP280;9205;52.032;4.314;2023-07-02T10:40:14;101042.31;;;20.28
18161;BMP280;9205;52.032;4.314;2023-07-02T10:42:49;101036.09;;;20.46
18161;BMP280;9205;52.032;4.314;2023-07-02T10:45:20;101043.22;;;20.56
18161;BMP280;9205;52.032;4.314;2023-07-02T10:47:55;101036.69;;;20.65
18161;BMP280;9205;52.032;4.314;2023-07-02T10:50:23;101031.91;;;20.73
18161;BMP280;9205;52.032;4.314;2023-07-02T10:52:52;101042.25;;;20.87
18161;BMP280;9205;52.032;4.314;2023-07-02T10:55:23;101044.81;;;21.15
18161;BMP280;9205;52.032;4.314;2023-07-02T10:58:02;101033.31;;;21.46
18161;BMP280;9205;52.032;4.314;2023-07-02T11:00:30;101032.19;;;21.64
18161;BMP280;9205;52.032;4.314;2023-07-02T11:02:59;101032.31;;;22.14
18161;BMP280;9205;52.032;4.314;2023-07-02T11:05:26;101037.59;;;22.64
18161;BMP280;9205;52.032;4.314;2023-07-02T11:08:09;101036.69;;;23.38
18161;BMP280;9205;52.032;4.314;2023-07-02T11:10:38;101038.47;;;23.84
18161;BMP280;9205;52.032;4.314;2023-07-02T11:13:13;101029.88;;;24.18
18161;BMP280;9205;52.032;4.314;2023-07-02T11:15:40;101035.00;;;24.41
18161;BMP280;9205;52.032;4.314;2023-07-02T11:18:13;101032.72;;;24.60
18161;BMP280;9205;52.032;4.314;2023-07-02T11:20:41;101050.19;;;24.58
18161;BMP280;9205;52.032;4.314;2023-07-02T11:23:18;101051.44;;;24.42
18161;BMP280;9205;52.032;4.314;2023-07-02T11:25:59;101049.72;;;24.19
18161;BMP280;9205;52.032;4.314;2023-07-02T11:28:33;101045.78;;;23.79
18161;BMP280;9205;52.032;4.314;2023-07-02T11:31:02;101051.03;;;23.54
18161;BMP280;9205;52.032;4.314;2023-07-02T11:33:35;101055.53;;;23.40
18161;BMP280;9205;52.032;4.314;2023-07-02T11:36:03;101040.53;;;23.32
18161;BMP280;9205;52.032;4.314;2023-07-02T11:38:31;101051.19;;;23.40
18161;BMP280;9205;52.032;4.314;2023-07-02T11:41:00;101049.00;;;23.47
18161;BMP280;9205;52.032;4.314;2023-07-02T11:43:29;101057.00;;;23.31
18161;BMP280;9205;52.032;4.314;2023-07-02T11:45:59;101056.53;;;23.14
18161;BMP280;9205;52.032;4.314;2023-07-02T11:48:27;101070.53;;;23.11
18161;BMP280;9205;52.032;4.314;2023-07-02T11:50:55;101069.69;;;23.11
18161;BMP280;9205;52.032;4.314;2023-07-02T11:53:22;101067.81;;;23.00
18161;BMP280;9205;52.032;4.314;2023-07-02T11:55:49;101058.09;;;22.91
18161;BMP280;9205;52.032;4.314;2023-07-02T11:58:18;101052.59;;;22.84
18161;BMP280;9205;52.032;4.314;2023-07-02T12:00:46;101065.16;;;22.89
18161;BMP280;9205;52.032;4.314;2023-07-02T12:03:14;101062.97;;;22.84
18161;BMP280;9205;52.032;4.314;2023-07-02T12:05:41;101061.53;;;22.80
18161;BMP280;9205;52.032;4.314;2023-07-02T12:08:08;101075.72;;;23.11
18161;BMP280;9205;52.032;4.314;2023-07-02T12:10:36;101075.72;;;23.11
18161;BMP280;9205;52.032;4.314;2023-07-02T12:13:03;101078.91;;;22.78
18161;BMP280;9205;52.032;4.314;2023-07-02T12:15:33;101087.72;;;22.88
18161;BMP280;9205;52.032;4.314;2023-07-02T12:18:00;101084.91;;;22.90
18161;BMP280;9205;52.032;4.314;2023-07-02T12:20:28;101075.09;;;22.83
18161;BMP280;9205;52.032;4.314;2023-07-02T12:22:56;101080.25;;;22.71
18161;BMP280;9205;52.032;4.314;2023-07-02T12:25:23;101084.50;;;22.72
18161;BMP280;9205;52.032;4.314;2023-07-02T12:27:51;101090.19;;;22.77
18161;BMP280;9205;52.032;4.314;2023-07-02T12:30:19;101086.06;;;22.62
18161;BMP280;9205;52.032;4.314;2023-07-02T12:32:48;101086.56;;;22.42
18161;BMP280;9205;52.032;4.314;2023-07-02T12:35:16;101105.72;;;22.25
18161;BMP280;9205;52.032;4.314;2023-07-02T12:37:45;101083.88;;;22.17
18161;BMP280;9205;52.032;4.314;2023-07-02T12:40:13;101090.81;;;22.43
18161;BMP280;9205;52.032;4.314;2023-07-02T12:42:42;101099.94;;;22.73
18161;BMP280;9205;52.032;4.314;2023-07-02T12:45:12;101087.13;;;22.84
18161;BMP280;9205;52.032;4.314;2023-07-02T12:47:40;101083.16;;;22.79
18161;BMP280;9205;52.032;4.314;2023-07-02T12:50:10;101079.66;;;22.80
18161;BMP280;9205;52.032;4.314;2023-07-02T12:52:38;101090.00;;;22.80
18161;BMP280;9205;52.032;4.314;2023-07-02T12:55:07;101090.19;;;23.01
18161;BMP280;9205;52.032;4.314;2023-07-02T12:57:35;101095.41;;;23.14
18161;BMP280;9205;52.032;4.314;2023-07-02T13:00:04;101093.63;;;23.27
18161;BMP280;9205;52.032;4.314;2023-07-02T13:02:34;101097.66;;;23.43
18161;BMP280;9205;52.032;4.314;2023-07-02T13:05:03;101087.09;;;23.69
18161;BMP280;9205;52.032;4.314;2023-07-02T13:07:32;101100.47;;;23.64
18161;BMP280;9205;52.032;4.314;2023-07-02T13:09:59;101094.19;;;23.55
18161;BMP280;9205;52.032;4.314;2023-07-02T13:12:27;101093.00;;;23.59
18161;BMP280;9205;52.032;4.314;2023-07-02T13:14:55;101107.91;;;23.68
18161;BMP280;9205;52.032;4.314;2023-07-02T13:17:24;101109.03;;;23.89
18161;BMP280;9205;52.032;4.314;2023-07-02T13:19:52;101104.78;;;23.88
18161;BMP280;9205;52.032;4.314;2023-07-02T13:22:19;101115.22;;;23.63
18161;BMP280;9205;52.032;4.314;2023-07-02T13:24:48;101102.91;;;23.42
18161;BMP280;9205;52.032;4.314;2023-07-02T13:27:18;101112.47;;;23.41
18161;BMP280;9205;52.032;4.314;2023-07-02T13:29:45;101116.59;;;23.44
18161;BMP280;9205;52.032;4.314;2023-07-02T13:32:13;101110.22;;;23.60
18161;BMP280;9205;52.032;4.314;2023-07-02T13:34:40;101109.78;;;23.78
18161;BMP280;9205;52.032;4.314;2023-07-02T13:37:08;101119.78;;;23.60
18161;BMP280;9205;52.032;4.314;2023-07-02T13:39:36;101115.06;;;23.41
18161;BMP280;9205;52.032;4.314;2023-07-02T13:42:06;101116.91;;;23.52
18161;BMP280;9205;52.032;4.314;2023-07-02T13:44:33;101115.25;;;23.51
18161;BMP280;9205;52.032;4.314;2023-07-02T13:47:01;101111.84;;;23.50
18161;BMP280;9205;52.032;4.314;2023-07-02T13:49:30;101115.66;;;23.57
18161;BMP280;9205;52.032;4.314;2023-07-02T13:51:57;101127.25;;;23.64
18161;BMP280;9205;52.032;4.314;2023-07-02T13:54:25;101111.09;;;23.48
18161;BMP280;9205;52.032;4.314;2023-07-02T13:56:53;101111.13;;;23.23
18161;BMP280;9205;52.032;4.314;2023-07-02T13:59:23;101105.34;;;23.07
18161;BMP280;9205;52.032;4.314;2023-07-02T14:01:50;101103.50;;;23.09
18161;BMP280;9205;52.032;4.314;2023-07-02T14:04:18;101094.25;;;23.05
18161;BMP280;9205;52.032;4.314;2023-07-02T14:06:48;101094.56;;;23.01
18161;BMP280;9205;52.032;4.314;2023-07-02T14:09:16;101092.69;;;22.90
18161;BMP280;9205;52.032;4.314;2023-07-02T14:11:43;101090.94;;;22.91
18161;BMP280;9205;52.032;4.314;2023-07-02T14:14:11;101092.47;;;22.69
18161;BMP280;9205;52.032;4.314;2023-07-02T14:16:40;101098.81;;;22.65
18161;BMP280;9205;52.032;4.314;2023-07-02T14:19:08;101086.88;;;22.75
18161;BMP280;9205;52.032;4.314;2023-07-02T14:21:35;101098.59;;;22.92
18161;BMP280;9205;52.032;4.314;2023-07-02T14:24:03;101091.75;;;22.91